sensor_id;sensor_type;location;lat;lon;timestamp;P1;durP1;ratioP1;P2;durP2;ratioP2
23490;SDS011;14683;50.038;8.078;2022-08-19T03:46:40;14.45;;;12.48;;
23490;SDS011;14683;50.038;8.078;2022-08-19T03:49:06;19.25;;;13.40;;
23490;SDS011;14683;50.038;8.078;2022-08-19T03:54:00;16.40;;;13.95;;
23490;SDS011;14683;50.038;8.078;2022-08-19T03:56:28;16.15;;;14.45;;
23490;SDS011;14683;50.038;8.078;2022-08-19T03:58:56;18.60;;;13.63;;
23490;SDS011;14683;50.038;8.078;2022-08-19T04:01:24;16.88;;;13.98;;
23490;SDS011;14683;50.038;8.078;2022-08-19T04:03:59;20.80;;;14.80;;
23490;SDS011;14683;50.038;8.078;2022-08-19T04:06:26;16.92;;;14.00;;
23490;SDS011;14683;50.038;8.078;2022-08-19T04:08:57;19.98;;;15.75;;
23490;SDS011;14683;50.038;8.078;2022-08-19T04:11:25;20.55;;;15.88;;
23490;SDS011;14683;50.038;8.078;2022-08-19T04:13:52;19.15;;;16.13;;
23490;SDS011;14683;50.038;8.078;2022-08-19T04:16:20;22.60;;;16.30;;
23490;SDS011;14683;50.038;8.078;2022-08-19T04:18:48;23.70;;;15.80;;
23490;SDS011;14683;50.038;8.078;2022-08-19T04:21:15;20.13;;;16.98;;
23490;SDS011;14683;50.038;8.078;2022-08-19T04:23:45;21.98;;;16.90;;
23490;SDS011;14683;50.038;8.078;2022-08-19T04:26:13;24.25;;;17.33;;
23490;SDS011;14683;50.038;8.078;2022-08-19T04:28:39;20.20;;;17.33;;
23490;SDS011;14683;50.038;8.078;2022-08-19T04:31:05;22.23;;;17.20;;
23490;SDS011;14683;50.038;8.078;2022-08-19T04:33:33;22.92;;;17.85;;
23490;SDS011;14683;50.038;8.078;2022-08-19T04:35:59;23.55;;;16.33;;
23490;SDS011;14683;50.038;8.078;2022-08-19T04:40:51;20.13;;;16.42;;
23490;SDS011;14683;50.038;8.078;2022-08-19T04:43:37;18.83;;;16.08;;
23490;SDS011;14683;50.038;8.078;2022-08-19T04:46:04;19.55;;;17.08;;
23490;SDS011;14683;50.038;8.078;2022-08-19T04:48:34;19.98;;;17.35;;
23490;SDS011;14683;50.038;8.078;2022-08-19T04:51:00;18.83;;;16.35;;
23490;SDS011;14683;50.038;8.078;2022-08-19T04:55:57;18.27;;;16.00;;
23490;SDS011;14683;50.038;8.078;2022-08-19T04:58:25;21.98;;;17.30;;
23490;SDS011;14683;50.038;8.078;2022-08-19T05:00:52;20.40;;;16.90;;
23490;SDS011;14683;50.038;8.078;2022-08-19T05:03:18;22.15;;;17.00;;
23490;SDS011;14683;50.038;8.078;2022-08-19T05:05:45;22.23;;;17.45;;
23490;SDS011;14683;50.038;8.078;2022-08-19T05:08:14;22.02;;;17.25;;
23490;SDS011;14683;50.038;8.078;2022-08-19T05:10:49;20.80;;;17.20;;
23490;SDS011;14683;50.038;8.078;2022-08-19T05:13:17;22.58;;;16.98;;
23490;SDS011;14683;50.038;8.078;2022-08-19T05:15:44;27.63;;;18.00;;
23490;SDS011;14683;50.038;8.078;2022-08-19T05:18:19;22.80;;;17.20;;
23490;SDS011;14683;50.038;8.078;2022-08-19T05:21:07;24.38;;;16.95;;
23490;SDS011;14683;50.038;8.078;2022-08-19T05:23:53;21.75;;;17.08;;
23490;SDS011;14683;50.038;8.078;2022-08-19T05:26:19;19.50;;;16.58;;
23490;SDS011;14683;50.038;8.078;2022-08-19T05:28:45;22.23;;;16.75;;
23490;SDS011;14683;50.038;8.078;2022-08-19T05:31:11;21.50;;;17.80;;
23490;SDS011;14683;50.038;8.078;2022-08-19T05:33:38;22.27;;;17.38;;
23490;SDS011;14683;50.038;8.078;2022-08-19T05:36:05;19.67;;;17.58;;
23490;SDS011;14683;50.038;8.078;2022-08-19T05:38:33;20.70;;;16.45;;
23490;SDS011;14683;50.038;8.078;2022-08-19T05:41:05;20.55;;;15.90;;
23490;SDS011;14683;50.038;8.078;2022-08-19T05:43:35;22.50;;;16.77;;
23490;SDS011;14683;50.038;8.078;2022-08-19T05:46:01;19.65;;;16.63;;
23490;SDS011;14683;50.038;8.078;2022-08-19T05:48:27;22.65;;;17.80;;
23490;SDS011;14683;50.038;8.078;2022-08-19T05:50:53;21.92;;;16.70;;
23490;SDS011;14683;50.038;8.078;2022-08-19T05:53:19;19.27;;;16.50;;
23490;SDS011;14683;50.038;8.078;2022-08-19T05:55:45;19.33;;;15.90;;
23490;SDS011;14683;50.038;8.078;2022-08-19T05:58:11;21.05;;;16.48;;
23490;SDS011;14683;50.038;8.078;2022-08-19T06:00:37;20.58;;;17.10;;
23490;SDS011;14683;50.038;8.078;2022-08-19T06:03:04;20.08;;;16.10;;
23490;SDS011;14683;50.038;8.078;2022-08-19T06:05:30;22.63;;;15.63;;
23490;SDS011;14683;50.038;8.078;2022-08-19T06:07:57;25.20;;;15.57;;
23490;SDS011;14683;50.038;8.078;2022-08-19T06:10:24;22.05;;;16.55;;
23490;SDS011;14683;50.038;8.078;2022-08-19T06:12:52;22.60;;;15.10;;
23490;SDS011;14683;50.038;8.078;2022-08-19T06:15:18;15.80;;;13.52;;
23490;SDS011;14683;50.038;8.078;2022-08-19T06:17:44;15.95;;;13.32;;
23490;SDS011;14683;50.038;8.078;2022-08-19T06:20:12;16.73;;;13.85;;
23490;SDS011;14683;50.038;8.078;2022-08-19T06:22:40;15.60;;;13.50;;
23490;SDS011;14683;50.038;8.078;2022-08-19T06:25:07;14.38;;;12.65;;
23490;SDS011;14683;50.038;8.078;2022-08-19T06:27:34;15.60;;;12.82;;
23490;SDS011;14683;50.038;8.078;2022-08-19T06:32:28;15.68;;;11.63;;
23490;SDS011;14683;50.038;8.078;2022-08-19T06:34:54;12.38;;;10.20;;
23490;SDS011;14683;50.038;8.078;2022-08-19T06:37:20;14.30;;;11.18;;
23490;SDS011;14683;50.038;8.078;2022-08-19T06:39:47;16.42;;;12.35;;
23490;SDS011;14683;50.038;8.078;2022-08-19T06:42:14;14.05;;;10.40;;
23490;SDS011;14683;50.038;8.078;2022-08-19T06:44:47;14.43;;;10.55;;
23490;SDS011;14683;50.038;8.078;2022-08-19T06:47:19;14.85;;;11.93;;
23490;SDS011;14683;50.038;8.078;2022-08-19T06:49:46;12.82;;;10.85;;
23490;SDS011;14683;50.038;8.078;2022-08-19T06:52:12;14.65;;;11.30;;
23490;SDS011;14683;50.038;8.078;2022-08-19T06:57:05;12.02;;;9.38;;
23490;SDS011;14683;50.038;8.078;2022-08-19T06:59:32;10.50;;;8.82;;
23490;SDS011;14683;50.038;8.078;2022-08-19T07:02:00;14.13;;;10.43;;
23490;SDS011;14683;50.038;8.078;2022-08-19T07:04:30;13.18;;;9.82;;
23490;SDS011;14683;50.038;8.078;2022-08-19T07:07:18;12.30;;;9.63;;
23490;SDS011;14683;50.038;8.078;2022-08-19T07:09:46;10.18;;;8.00;;
23490;SDS011;14683;50.038;8.078;2022-08-19T07:12:13;11.85;;;9.52;;
23490;SDS011;14683;50.038;8.078;2022-08-19T07:14:43;10.10;;;7.50;;
23490;SDS011;14683;50.038;8.078;2022-08-19T07:17:11;8.65;;;7.75;;
23490;SDS011;14683;50.038;8.078;2022-08-19T07:19:37;11.52;;;9.38;;
23490;SDS011;14683;50.038;8.078;2022-08-19T07:22:05;16.08;;;11.32;;
23490;SDS011;14683;50.038;8.078;2022-08-19T07:24:32;10.43;;;8.27;;
23490;SDS011;14683;50.038;8.078;2022-08-19T07:26:59;16.23;;;9.90;;
23490;SDS011;14683;50.038;8.078;2022-08-19T07:29:29;16.23;;;11.35;;
23490;SDS011;14683;50.038;8.078;2022-08-19T07:31:56;19.60;;;12.45;;
23490;SDS011;14683;50.038;8.078;2022-08-19T07:34:24;15.43;;;11.85;;
23490;SDS011;14683;50.038;8.078;2022-08-19T07:36:51;15.40;;;10.75;;
23490;SDS011;14683;50.038;8.078;2022-08-19T07:39:24;16.23;;;10.57;;
23490;SDS011;14683;50.038;8.078;2022-08-19T07:41:54;13.07;;;9.65;;
23490;SDS011;14683;50.038;8.078;2022-08-19T07:44:21;10.73;;;9.02;;
23490;SDS011;14683;50.038;8.078;2022-08-19T07:46:52;14.60;;;9.32;;
23490;SDS011;14683;50.038;8.078;2022-08-19T07:49:19;12.07;;;7.70;;
23490;SDS011;14683;50.038;8.078;2022-08-19T07:51:47;13.95;;;10.07;;
23490;SDS011;14683;50.038;8.078;2022-08-19T07:54:15;15.23;;;11.68;;
23490;SDS011;14683;50.038;8.078;2022-08-19T07:56:42;13.75;;;12.25;;
23490;SDS011;14683;50.038;8.078;2022-08-19T08:01:35;13.50;;;11.43;;
23490;SDS011;14683;50.038;8.078;2022-08-19T08:04:01;13.60;;;10.85;;
23490;SDS011;14683;50.038;8.078;2022-08-19T08:06:45;15.90;;;12.18;;
23490;SDS011;14683;50.038;8.078;2022-08-19T08:09:35;10.77;;;7.57;;
23490;SDS011;14683;50.038;8.078;2022-08-19T08:12:04;14.98;;;12.48;;
23490;SDS011;14683;50.038;8.078;2022-08-19T08:14:37;13.45;;;9.52;;
23490;SDS011;14683;50.038;8.078;2022-08-19T08:17:09;14.63;;;10.77;;
23490;SDS011;14683;50.038;8.078;2022-08-19T08:19:36;11.82;;;9.80;;
23490;SDS011;14683;50.038;8.078;2022-08-19T08:22:03;10.70;;;8.45;;
23490;SDS011;14683;50.038;8.078;2022-08-19T08:24:31;18.88;;;12.73;;
23490;SDS011;14683;50.038;8.078;2022-08-19T08:29:28;15.82;;;12.27;;
23490;SDS011;14683;50.038;8.078;2022-08-19T08:31:55;9.05;;;8.07;;
23490;SDS011;14683;50.038;8.078;2022-08-19T08:34:21;13.02;;;9.70;;
23490;SDS011;14683;50.038;8.078;2022-08-19T08:39:14;13.75;;;11.25;;
23490;SDS011;14683;50.038;8.078;2022-08-19T08:41:46;13.50;;;12.10;;
23490;SDS011;14683;50.038;8.078;2022-08-19T08:44:47;12.98;;;10.75;;
23490;SDS011;14683;50.038;8.078;2022-08-19T08:47:20;17.50;;;14.02;;
23490;SDS011;14683;50.038;8.078;2022-08-19T08:49:55;13.60;;;12.18;;
23490;SDS011;14683;50.038;8.078;2022-08-19T08:52:26;11.90;;;10.85;;
23490;SDS011;14683;50.038;8.078;2022-08-19T08:54:55;18.02;;;13.98;;
23490;SDS011;14683;50.038;8.078;2022-08-19T08:57:33;13.45;;;11.95;;
23490;SDS011;14683;50.038;8.078;2022-08-19T09:00:04;13.95;;;12.55;;
23490;SDS011;14683;50.038;8.078;2022-08-19T09:02:32;20.98;;;14.93;;
23490;SDS011;14683;50.038;8.078;2022-08-19T09:10:22;14.18;;;12.65;;
23490;SDS011;14683;50.038;8.078;2022-08-19T09:15:39;15.40;;;12.00;;
23490;SDS011;14683;50.038;8.078;2022-08-19T09:20:39;12.25;;;9.57;;
23490;SDS011;14683;50.038;8.078;2022-08-19T09:23:05;11.88;;;9.70;;
23490;SDS011;14683;50.038;8.078;2022-08-19T09:28:00;14.40;;;9.70;;
23490;SDS011;14683;50.038;8.078;2022-08-19T09:30:33;12.40;;;9.43;;
23490;SDS011;14683;50.038;8.078;2022-08-19T09:33:03;11.55;;;8.40;;
23490;SDS011;14683;50.038;8.078;2022-08-19T09:35:30;8.15;;;7.35;;
23490;SDS011;14683;50.038;8.078;2022-08-19T09:37:56;8.43;;;7.15;;
23490;SDS011;14683;50.038;8.078;2022-08-19T09:40:23;9.23;;;7.78;;
23490;SDS011;14683;50.038;8.078;2022-08-19T09:42:50;8.20;;;7.40;;
23490;SDS011;14683;50.038;8.078;2022-08-19T09:45:18;8.38;;;7.60;;
23490;SDS011;14683;50.038;8.078;2022-08-19T09:47:47;8.27;;;7.40;;
23490;SDS011;14683;50.038;8.078;2022-08-19T09:50:13;10.27;;;8.98;;
23490;SDS011;14683;50.038;8.078;2022-08-19T09:52:39;8.02;;;7.05;;
23490;SDS011;14683;50.038;8.078;2022-08-19T09:55:08;6.00;;;5.50;;
23490;SDS011;14683;50.038;8.078;2022-08-19T09:57:35;9.23;;;8.00;;
23490;SDS011;14683;50.038;8.078;2022-08-19T10:00:06;8.20;;;7.20;;
23490;SDS011;14683;50.038;8.078;2022-08-19T10:02:33;8.05;;;7.35;;
23490;SDS011;14683;50.038;8.078;2022-08-19T10:05:00;10.02;;;7.55;;
23490;SDS011;14683;50.038;8.078;2022-08-19T10:07:45;7.78;;;5.50;;
23490;SDS011;14683;50.038;8.078;2022-08-19T10:10:11;6.20;;;5.60;;
23490;SDS011;14683;50.038;8.078;2022-08-19T10:15:04;7.85;;;7.05;;
23490;SDS011;14683;50.038;8.078;2022-08-19T10:17:31;7.82;;;6.95;;
23490;SDS011;14683;50.038;8.078;2022-08-19T10:19:59;7.75;;;5.70;;
23490;SDS011;14683;50.038;8.078;2022-08-19T10:22:25;7.55;;;6.47;;
23490;SDS011;14683;50.038;8.078;2022-08-19T10:24:51;11.48;;;7.80;;
23490;SDS011;14683;50.038;8.078;2022-08-19T10:27:18;8.88;;;7.57;;
23490;SDS011;14683;50.038;8.078;2022-08-19T10:29:44;8.15;;;7.45;;
23490;SDS011;14683;50.038;8.078;2022-08-19T10:32:10;6.03;;;5.53;;
23490;SDS011;14683;50.038;8.078;2022-08-19T10:34:36;5.38;;;4.85;;
23490;SDS011;14683;50.038;8.078;2022-08-19T10:37:03;6.10;;;5.22;;
23490;SDS011;14683;50.038;8.078;2022-08-19T10:39:32;5.88;;;4.97;;
23490;SDS011;14683;50.038;8.078;2022-08-19T10:42:03;6.15;;;4.90;;
23490;SDS011;14683;50.038;8.078;2022-08-19T10:44:31;5.65;;;5.15;;
23490;SDS011;14683;50.038;8.078;2022-08-19T10:46:57;5.15;;;4.75;;
23490;SDS011;14683;50.038;8.078;2022-08-19T10:49:24;7.93;;;5.28;;
23490;SDS011;14683;50.038;8.078;2022-08-19T10:51:50;6.28;;;5.43;;
23490;SDS011;14683;50.038;8.078;2022-08-19T10:54:35;7.18;;;5.80;;
23490;SDS011;14683;50.038;8.078;2022-08-19T10:57:19;8.45;;;5.72;;
23490;SDS011;14683;50.038;8.078;2022-08-19T10:59:45;7.32;;;6.68;;
23490;SDS011;14683;50.038;8.078;2022-08-19T11:02:12;6.72;;;6.18;;
23490;SDS011;14683;50.038;8.078;2022-08-19T11:04:39;9.45;;;6.60;;
23490;SDS011;14683;50.038;8.078;2022-08-19T11:07:05;9.27;;;6.78;;
23490;SDS011;14683;50.038;8.078;2022-08-19T11:09:37;7.07;;;6.38;;
23490;SDS011;14683;50.038;8.078;2022-08-19T11:12:05;7.32;;;6.68;;
23490;SDS011;14683;50.038;8.078;2022-08-19T11:14:31;6.78;;;6.18;;
23490;SDS011;14683;50.038;8.078;2022-08-19T11:16:59;5.70;;;5.25;;
23490;SDS011;14683;50.038;8.078;2022-08-19T11:19:26;9.63;;;6.78;;
23490;SDS011;14683;50.038;8.078;2022-08-19T11:21:53;6.65;;;5.90;;
23490;SDS011;14683;50.038;8.078;2022-08-19T11:24:20;8.98;;;7.38;;
23490;SDS011;14683;50.038;8.078;2022-08-19T11:26:51;8.50;;;6.97;;
23490;SDS011;14683;50.038;8.078;2022-08-19T11:29:19;7.10;;;5.95;;
23490;SDS011;14683;50.038;8.078;2022-08-19T11:31:47;6.88;;;6.18;;
23490;SDS011;14683;50.038;8.078;2022-08-19T11:34:16;8.07;;;7.28;;
23490;SDS011;14683;50.038;8.078;2022-08-19T11:36:44;9.82;;;7.03;;
23490;SDS011;14683;50.038;8.078;2022-08-19T11:39:15;7.28;;;6.60;;
23490;SDS011;14683;50.038;8.078;2022-08-19T11:41:42;7.68;;;6.82;;
23490;SDS011;14683;50.038;8.078;2022-08-19T11:46:34;6.95;;;6.25;;
23490;SDS011;14683;50.038;8.078;2022-08-19T11:49:02;6.88;;;6.28;;
23490;SDS011;14683;50.038;8.078;2022-08-19T11:51:29;7.15;;;5.72;;
23490;SDS011;14683;50.038;8.078;2022-08-19T11:53:56;8.10;;;6.55;;
23490;SDS011;14683;50.038;8.078;2022-08-19T11:56:24;8.35;;;6.35;;
23490;SDS011;14683;50.038;8.078;2022-08-19T11:58:51;6.70;;;6.10;;
23490;SDS011;14683;50.038;8.078;2022-08-19T12:01:19;8.82;;;6.10;;
23490;SDS011;14683;50.038;8.078;2022-08-19T12:03:47;8.23;;;5.97;;
23490;SDS011;14683;50.038;8.078;2022-08-19T12:06:16;6.15;;;5.55;;
23490;SDS011;14683;50.038;8.078;2022-08-19T12:08:44;6.30;;;5.43;;
23490;SDS011;14683;50.038;8.078;2022-08-19T12:11:11;5.10;;;4.70;;
23490;SDS011;14683;50.038;8.078;2022-08-19T12:13:39;6.32;;;4.50;;
23490;SDS011;14683;50.038;8.078;2022-08-19T12:16:13;6.03;;;5.30;;
23490;SDS011;14683;50.038;8.078;2022-08-19T12:18:41;5.72;;;4.97;;
23490;SDS011;14683;50.038;8.078;2022-08-19T12:21:12;6.18;;;5.57;;
23490;SDS011;14683;50.038;8.078;2022-08-19T12:23:42;7.57;;;5.57;;
23490;SDS011;14683;50.038;8.078;2022-08-19T12:26:10;6.18;;;5.65;;
23490;SDS011;14683;50.038;8.078;2022-08-19T12:28:36;5.93;;;5.43;;
23490;SDS011;14683;50.038;8.078;2022-08-19T12:31:03;5.75;;;5.10;;
23490;SDS011;14683;50.038;8.078;2022-08-19T12:33:30;6.35;;;4.82;;
23490;SDS011;14683;50.038;8.078;2022-08-19T12:36:01;8.60;;;5.05;;
23490;SDS011;14683;50.038;8.078;2022-08-19T12:38:29;5.38;;;4.70;;
23490;SDS011;14683;50.038;8.078;2022-08-19T12:43:21;5.03;;;4.63;;
23490;SDS011;14683;50.038;8.078;2022-08-19T12:45:47;5.47;;;4.53;;
23490;SDS011;14683;50.038;8.078;2022-08-19T12:48:13;4.93;;;4.53;;
23490;SDS011;14683;50.038;8.078;2022-08-19T12:50:40;6.65;;;4.88;;
23490;SDS011;14683;50.038;8.078;2022-08-19T12:53:06;5.28;;;4.78;;
23490;SDS011;14683;50.038;8.078;2022-08-19T12:55:32;4.07;;;3.67;;
23490;SDS011;14683;50.038;8.078;2022-08-19T12:57:58;3.92;;;3.63;;
23490;SDS011;14683;50.038;8.078;2022-08-19T13:00:27;5.32;;;2.80;;
23490;SDS011;14683;50.038;8.078;2022-08-19T13:02:53;3.90;;;3.60;;
23490;SDS011;14683;50.038;8.078;2022-08-19T13:05:21;5.43;;;3.90;;
23490;SDS011;14683;50.038;8.078;2022-08-19T13:07:50;3.00;;;2.80;;
23490;SDS011;14683;50.038;8.078;2022-08-19T13:10:18;3.92;;;2.90;;
23490;SDS011;14683;50.038;8.078;2022-08-19T13:12:46;5.70;;;3.92;;
23490;SDS011;14683;50.038;8.078;2022-08-19T13:15:14;4.68;;;3.70;;
23490;SDS011;14683;50.038;8.078;2022-08-19T13:17:42;3.65;;;3.35;;
23490;SDS011;14683;50.038;8.078;2022-08-19T13:20:08;7.18;;;3.92;;
23490;SDS011;14683;50.038;8.078;2022-08-19T13:22:35;5.45;;;4.15;;
23490;SDS011;14683;50.038;8.078;2022-08-19T13:25:02;4.82;;;4.20;;
23490;SDS011;14683;50.038;8.078;2022-08-19T13:27:29;5.07;;;4.28;;
23490;SDS011;14683;50.038;8.078;2022-08-19T13:29:55;5.97;;;4.28;;
23490;SDS011;14683;50.038;8.078;2022-08-19T13:32:39;6.78;;;4.40;;
23490;SDS011;14683;50.038;8.078;2022-08-19T13:35:24;6.22;;;4.30;;
23490;SDS011;14683;50.038;8.078;2022-08-19T13:37:50;4.90;;;4.25;;
23490;SDS011;14683;50.038;8.078;2022-08-19T13:40:17;5.13;;;4.35;;
23490;SDS011;14683;50.038;8.078;2022-08-19T13:42:46;4.55;;;4.22;;
23490;SDS011;14683;50.038;8.078;2022-08-19T13:45:18;4.55;;;3.90;;
23490;SDS011;14683;50.038;8.078;2022-08-19T13:47:46;4.88;;;4.47;;
23490;SDS011;14683;50.038;8.078;2022-08-19T13:50:14;4.60;;;4.20;;
23490;SDS011;14683;50.038;8.078;2022-08-19T13:52:42;4.57;;;4.18;;
23490;SDS011;14683;50.038;8.078;2022-08-19T13:55:10;6.00;;;5.00;;
23490;SDS011;14683;50.038;8.078;2022-08-19T13:57:36;5.18;;;4.78;;
23490;SDS011;14683;50.038;8.078;2022-08-19T14:00:07;6.00;;;4.55;;
23490;SDS011;14683;50.038;8.078;2022-08-19T14:02:37;5.07;;;4.65;;
23490;SDS011;14683;50.038;8.078;2022-08-19T14:05:06;4.50;;;4.10;;
23490;SDS011;14683;50.038;8.078;2022-08-19T14:07:34;5.35;;;4.88;;
23490;SDS011;14683;50.038;8.078;2022-08-19T14:10:02;6.43;;;4.72;;
23490;SDS011;14683;50.038;8.078;2022-08-19T14:12:29;5.65;;;4.88;;
23490;SDS011;14683;50.038;8.078;2022-08-19T14:14:57;7.00;;;5.22;;
23490;SDS011;14683;50.038;8.078;2022-08-19T14:17:24;5.63;;;5.13;;
23490;SDS011;14683;50.038;8.078;2022-08-19T14:20:00;6.53;;;5.18;;
23490;SDS011;14683;50.038;8.078;2022-08-19T14:22:29;5.85;;;5.28;;
23490;SDS011;14683;50.038;8.078;2022-08-19T14:24:56;5.88;;;5.28;;
23490;SDS011;14683;50.038;8.078;2022-08-19T14:27:22;6.15;;;5.55;;
23490;SDS011;14683;50.038;8.078;2022-08-19T14:29:53;5.32;;;4.68;;
23490;SDS011;14683;50.038;8.078;2022-08-19T14:32:20;6.65;;;5.18;;
23490;SDS011;14683;50.038;8.078;2022-08-19T14:34:47;5.47;;;4.97;;
23490;SDS011;14683;50.038;8.078;2022-08-19T14:39:40;5.65;;;5.15;;
23490;SDS011;14683;50.038;8.078;2022-08-19T14:42:08;5.70;;;5.10;;
23490;SDS011;14683;50.038;8.078;2022-08-19T14:44:35;5.82;;;5.32;;
23490;SDS011;14683;50.038;8.078;2022-08-19T14:47:01;7.50;;;5.28;;
23490;SDS011;14683;50.038;8.078;2022-08-19T14:49:27;8.13;;;5.53;;
23490;SDS011;14683;50.038;8.078;2022-08-19T14:51:53;8.18;;;5.38;;
23490;SDS011;14683;50.038;8.078;2022-08-19T14:54:20;5.57;;;5.07;;
23490;SDS011;14683;50.038;8.078;2022-08-19T14:56:47;5.28;;;4.88;;
23490;SDS011;14683;50.038;8.078;2022-08-19T14:59:13;6.07;;;5.55;;
23490;SDS011;14683;50.038;8.078;2022-08-19T15:04:05;6.53;;;5.50;;
23490;SDS011;14683;50.038;8.078;2022-08-19T15:06:31;6.18;;;5.68;;
23490;SDS011;14683;50.038;8.078;2022-08-19T15:08:58;9.32;;;6.10;;
23490;SDS011;14683;50.038;8.078;2022-08-19T15:11:25;6.35;;;5.65;;
23490;SDS011;14683;50.038;8.078;2022-08-19T15:13:53;5.88;;;5.28;;
23490;SDS011;14683;50.038;8.078;2022-08-19T15:16:20;6.47;;;5.70;;
23490;SDS011;14683;50.038;8.078;2022-08-19T15:18:48;10.73;;;5.95;;
23490;SDS011;14683;50.038;8.078;2022-08-19T15:21:16;5.82;;;4.90;;
23490;SDS011;14683;50.038;8.078;2022-08-19T15:23:46;7.13;;;6.00;;
23490;SDS011;14683;50.038;8.078;2022-08-19T15:26:14;6.47;;;5.90;;
23490;SDS011;14683;50.038;8.078;2022-08-19T15:28:41;5.70;;;5.20;;
23490;SDS011;14683;50.038;8.078;2022-08-19T15:31:07;6.07;;;5.40;;
23490;SDS011;14683;50.038;8.078;2022-08-19T15:33:34;6.50;;;5.55;;
23490;SDS011;14683;50.038;8.078;2022-08-19T15:36:05;6.72;;;5.43;;
23490;SDS011;14683;50.038;8.078;2022-08-19T15:38:32;6.68;;;6.07;;
23490;SDS011;14683;50.038;8.078;2022-08-19T15:40:59;6.95;;;6.28;;
23490;SDS011;14683;50.038;8.078;2022-08-19T15:43:45;7.10;;;6.43;;
23490;SDS011;14683;50.038;8.078;2022-08-19T15:46:15;6.40;;;5.80;;
23490;SDS011;14683;50.038;8.078;2022-08-19T15:48:46;7.82;;;6.00;;
23490;SDS011;14683;50.038;8.078;2022-08-19T15:51:13;6.43;;;5.80;;
23490;SDS011;14683;50.038;8.078;2022-08-19T15:53:39;6.03;;;5.53;;
23490;SDS011;14683;50.038;8.078;2022-08-19T15:56:09;6.03;;;5.43;;
23490;SDS011;14683;50.038;8.078;2022-08-19T15:58:36;5.90;;;5.50;;
23490;SDS011;14683;50.038;8.078;2022-08-19T16:01:21;6.78;;;5.47;;
23490;SDS011;14683;50.038;8.078;2022-08-19T16:03:59;7.93;;;5.75;;
23490;SDS011;14683;50.038;8.078;2022-08-19T16:06:49;5.85;;;5.25;;
23490;SDS011;14683;50.038;8.078;2022-08-19T16:09:17;6.88;;;5.40;;
23490;SDS011;14683;50.038;8.078;2022-08-19T16:11:44;6.20;;;5.65;;
23490;SDS011;14683;50.038;8.078;2022-08-19T16:14:15;7.63;;;5.40;;
23490;SDS011;14683;50.038;8.078;2022-08-19T16:16:43;6.95;;;5.80;;
23490;SDS011;14683;50.038;8.078;2022-08-19T16:19:11;6.13;;;5.63;;
23490;SDS011;14683;50.038;8.078;2022-08-19T16:21:44;7.40;;;5.80;;
23490;SDS011;14683;50.038;8.078;2022-08-19T16:24:14;6.40;;;5.57;;
23490;SDS011;14683;50.038;8.078;2022-08-19T16:26:42;6.13;;;5.38;;
23490;SDS011;14683;50.038;8.078;2022-08-19T16:29:09;6.25;;;5.60;;
23490;SDS011;14683;50.038;8.078;2022-08-19T16:31:36;9.15;;;5.30;;
23490;SDS011;14683;50.038;8.078;2022-08-19T16:34:02;6.72;;;5.75;;
23490;SDS011;14683;50.038;8.078;2022-08-19T16:36:29;7.45;;;5.85;;
23490;SDS011;14683;50.038;8.078;2022-08-19T16:38:55;7.53;;;5.80;;
23490;SDS011;14683;50.038;8.078;2022-08-19T16:43:48;5.25;;;4.85;;
23490;SDS011;14683;50.038;8.078;2022-08-19T16:46:17;5.60;;;4.85;;
23490;SDS011;14683;50.038;8.078;2022-08-19T16:48:44;6.10;;;5.40;;
23490;SDS011;14683;50.038;8.078;2022-08-19T16:51:11;5.85;;;5.32;;
23490;SDS011;14683;50.038;8.078;2022-08-19T16:53:38;5.80;;;4.68;;
23490;SDS011;14683;50.038;8.078;2022-08-19T16:56:05;6.80;;;5.03;;
23490;SDS011;14683;50.038;8.078;2022-08-19T16:58:31;6.78;;;5.43;;
23490;SDS011;14683;50.038;8.078;2022-08-19T17:01:02;8.15;;;6.40;;
23490;SDS011;14683;50.038;8.078;2022-08-19T17:03:31;8.82;;;6.40;;
23490;SDS011;14683;50.038;8.078;2022-08-19T17:05:58;8.20;;;6.63;;
23490;SDS011;14683;50.038;8.078;2022-08-19T17:08:29;8.43;;;6.50;;
23490;SDS011;14683;50.038;8.078;2022-08-19T17:10:56;6.82;;;6.22;;
23490;SDS011;14683;50.038;8.078;2022-08-19T17:13:24;7.95;;;6.65;;
23490;SDS011;14683;50.038;8.078;2022-08-19T17:15:51;7.85;;;6.38;;
23490;SDS011;14683;50.038;8.078;2022-08-19T17:18:18;7.43;;;6.63;;
23490;SDS011;14683;50.038;8.078;2022-08-19T17:20:45;8.10;;;6.65;;
23490;SDS011;14683;50.038;8.078;2022-08-19T17:23:12;8.07;;;6.55;;
23490;SDS011;14683;50.038;8.078;2022-08-19T17:25:38;6.38;;;5.78;;
23490;SDS011;14683;50.038;8.078;2022-08-19T17:30:32;6.18;;;5.57;;
23490;SDS011;14683;50.038;8.078;2022-08-19T17:32:58;6.65;;;5.95;;
23490;SDS011;14683;50.038;8.078;2022-08-19T17:35:24;6.22;;;5.68;;
23490;SDS011;14683;50.038;8.078;2022-08-19T17:37:51;8.43;;;6.65;;
23490;SDS011;14683;50.038;8.078;2022-08-19T17:42:44;7.60;;;6.90;;
23490;SDS011;14683;50.038;8.078;2022-08-19T17:45:11;9.40;;;6.93;;
23490;SDS011;14683;50.038;8.078;2022-08-19T17:47:38;7.97;;;6.47;;
23490;SDS011;14683;50.038;8.078;2022-08-19T17:50:05;9.60;;;7.25;;
23490;SDS011;14683;50.038;8.078;2022-08-19T17:52:33;10.00;;;7.53;;
23490;SDS011;14683;50.038;8.078;2022-08-19T17:54:59;8.13;;;7.40;;
23490;SDS011;14683;50.038;8.078;2022-08-19T17:57:26;8.30;;;7.50;;
23490;SDS011;14683;50.038;8.078;2022-08-19T17:59:52;8.45;;;7.63;;
23490;SDS011;14683;50.038;8.078;2022-08-19T18:02:18;9.02;;;7.93;;
23490;SDS011;14683;50.038;8.078;2022-08-19T18:07:10;8.43;;;7.22;;
23490;SDS011;14683;50.038;8.078;2022-08-19T18:09:38;7.88;;;7.07;;
23490;SDS011;14683;50.038;8.078;2022-08-19T18:12:06;8.10;;;7.30;;
23490;SDS011;14683;50.038;8.078;2022-08-19T18:14:35;7.80;;;7.00;;
23490;SDS011;14683;50.038;8.078;2022-08-19T18:17:06;8.10;;;7.20;;
23490;SDS011;14683;50.038;8.078;2022-08-19T18:19:35;7.72;;;6.95;;
23490;SDS011;14683;50.038;8.078;2022-08-19T18:22:02;9.77;;;7.00;;
23490;SDS011;14683;50.038;8.078;2022-08-19T18:26:54;7.15;;;6.55;;
23490;SDS011;14683;50.038;8.078;2022-08-19T18:29:23;9.45;;;7.30;;
23490;SDS011;14683;50.038;8.078;2022-08-19T18:31:49;7.95;;;7.10;;
23490;SDS011;14683;50.038;8.078;2022-08-19T18:34:15;10.88;;;7.35;;
23490;SDS011;14683;50.038;8.078;2022-08-19T18:36:41;8.68;;;7.07;;
23490;SDS011;14683;50.038;8.078;2022-08-19T18:39:07;8.05;;;6.47;;
23490;SDS011;14683;50.038;8.078;2022-08-19T18:41:52;8.00;;;6.72;;
23490;SDS011;14683;50.038;8.078;2022-08-19T18:44:37;9.50;;;7.00;;
23490;SDS011;14683;50.038;8.078;2022-08-19T18:47:21;7.22;;;6.53;;
23490;SDS011;14683;50.038;8.078;2022-08-19T18:50:06;8.27;;;7.10;;
23490;SDS011;14683;50.038;8.078;2022-08-19T18:52:34;7.38;;;6.68;;
23490;SDS011;14683;50.038;8.078;2022-08-19T18:55:01;7.95;;;7.00;;
23490;SDS011;14683;50.038;8.078;2022-08-19T18:57:28;8.23;;;7.15;;
23490;SDS011;14683;50.038;8.078;2022-08-19T18:59:54;8.02;;;7.13;;
23490;SDS011;14683;50.038;8.078;2022-08-19T19:02:24;10.98;;;6.93;;
23490;SDS011;14683;50.038;8.078;2022-08-19T19:04:51;9.20;;;7.25;;
23490;SDS011;14683;50.038;8.078;2022-08-19T19:09:46;6.88;;;6.18;;
23490;SDS011;14683;50.038;8.078;2022-08-19T19:12:15;9.05;;;6.80;;
23490;SDS011;14683;50.038;8.078;2022-08-19T19:14:42;8.15;;;6.90;;
23490;SDS011;14683;50.038;8.078;2022-08-19T19:19:36;7.38;;;6.60;;
23490;SDS011;14683;50.038;8.078;2022-08-19T19:22:09;7.53;;;6.78;;
23490;SDS011;14683;50.038;8.078;2022-08-19T19:24:36;8.50;;;6.63;;
23490;SDS011;14683;50.038;8.078;2022-08-19T19:27:04;7.95;;;6.75;;
23490;SDS011;14683;50.038;8.078;2022-08-19T19:29:35;9.57;;;6.80;;
23490;SDS011;14683;50.038;8.078;2022-08-19T19:32:02;10.13;;;7.28;;
23490;SDS011;14683;50.038;8.078;2022-08-19T19:34:29;10.60;;;6.97;;